Abrela — EAVW — position and weather

sailwx.info

Track history (hours):
 
Tides and Currents Weather Stations Pressure Air Temp Water Temp Dewpoint Dewpoint Depression Visibility Wind Speed Wind Dir Waves Ship Positions

Abrela

Last reported at 2016-May-08 22:33 UTC. Time now 2016-May-28 10:00 UTC.
Position N 43°33' W 005°42'.
Warning: this ship's position is 19 days out of date.

Length 30 m; draft 3 m.

Type: Fishing. MMSI: 224204490.

Date/timePositionNaut miles runAvg speedWind from/ knotsBaromVisibWave heightAir tempDewpointWater temp
2016-May-08 22:33N 43°33' W 005°42'0 0.0
2016-May-08 21:32N 43°33' W 005°42'0 0.0
2016-May-08 20:23N 43°33' W 005°42'0 0.0
2016-May-08 19:33N 43°33' W 005°42'0 0.0
2016-May-08 18:33N 43°33' W 005°42'0 0.0
2016-May-08 17:33N 43°33' W 005°42'0 0.0
2016-May-08 16:28N 43°33' W 005°42'0 0.0
2016-May-08 15:30N 43°33' W 005°42'0 0.0
2016-May-08 14:32N 43°33' W 005°42'0 0.0
2016-May-08 13:33N 43°33' W 005°42'0 0.0
2016-May-08 12:27N 43°33' W 005°42'0 0.0
2016-May-08 11:21N 43°33' W 005°42'0 0.0
2016-May-08 10:33N 43°33' W 005°42'0 0.0
2016-May-08 09:29N 43°33' W 005°42'0 0.0
2016-May-08 08:30N 43°33' W 005°42'0 0.0
2016-May-08 07:33N 43°33' W 005°42'0 0.0
2016-May-08 06:33N 43°33' W 005°42'0 0.0
2016-May-08 05:33N 43°33' W 005°42'0 0.0
2016-May-08 04:33N 43°33' W 005°42'0 0.0
2016-May-08 03:32N 43°33' W 005°42'0 0.0
2016-May-08 02:32N 43°33' W 005°42'0 0.0
2016-May-08 01:33N 43°33' W 005°42'0 0.0
2016-May-08 00:30N 43°33' W 005°42'0 0.0
2016-May-07 23:32N 43°33' W 005°42'0 0.0
2016-May-07 22:26N 43°33' W 005°42'0 0.0
2016-May-07 21:33N 43°33' W 005°42'0 0.0
2016-May-07 20:21N 43°33' W 005°42'0 0.0
2016-May-07 19:29N 43°33' W 005°42'0 0.0
2016-May-07 18:32N 43°33' W 005°42'0 0.0
2016-May-07 17:33N 43°33' W 005°42'0 0.0
2016-May-07 16:33N 43°33' W 005°42'0 0.0
2016-May-07 15:32N 43°33' W 005°42'0 0.0
2016-May-07 14:33N 43°33' W 005°42'0 0.0
2016-May-07 13:33N 43°33' W 005°42'0 0.0
2016-May-07 12:21N 43°33' W 005°42'0 0.0
2016-May-07 11:29N 43°33' W 005°42'0 0.0
2016-May-07 10:33N 43°33' W 005°42'0 0.0
2016-May-07 09:33N 43°33' W 005°42'0 0.0
2016-May-07 08:29N 43°33' W 005°42'0 0.0
2016-May-07 07:30N 43°33' W 005°42'0 0.0
2016-May-07 06:33N 43°33' W 005°42'0 0.0
2016-May-07 05:32N 43°33' W 005°42'0 0.0
2016-May-07 04:30N 43°33' W 005°42'0 0.0
2016-May-07 03:33N 43°33' W 005°42'0 0.0
2016-May-07 02:33N 43°33' W 005°42'0 0.0
2016-May-07 01:25N 43°33' W 005°42'0 0.0
2016-May-07 00:33N 43°33' W 005°42'0 0.0
2016-May-06 23:33N 43°33' W 005°42'0 0.0
2016-May-06 20:27N 43°33' W 005°42'0 0.0
2016-May-06 19:33N 43°33' W 005°42'0 0.0
2016-May-06 18:33N 43°33' W 005°42'0 0.0
2016-May-06 17:23N 43°33' W 005°42'0 0.0
2016-May-06 16:20N 43°33' W 005°42'0 0.6
2016-May-06 15:33N 43°34' W 005°41'5 5.3
2016-May-06 14:33N 43°37' W 005°36'6 6.3
2016-May-06 13:33N 43°43' W 005°31'4 3.7
2016-May-06 12:26N 43°46' W 005°28'2 2.0
2016-May-06 11:14N 43°46' W 005°25'4 4.4
2016-May-06 10:14N 43°47' W 005°19'13 1.4
2016-May-06 01:16N 43°36' W 005°27'7 9.7
2016-May-06 00:31N 43°35' W 005°37'4 0.7
2016-May-05 19:33N 43°33' W 005°42'0 0.0
2016-May-05 18:33N 43°33' W 005°42'3 3.2
2016-May-05 17:33N 43°35' W 005°38'1110.2
2016-May-05 16:28N 43°43' W 005°27'8 0.3
2016-May-04 14:28N 43°49' W 005°20'16 1.4
2016-May-04 02:32N 43°35' W 005°33'7 7.1
2016-May-04 01:33N 43°33' W 005°42'0 0.0
2016-May-03 23:26N 43°33' W 005°42'0 0.0
2016-May-03 22:31N 43°33' W 005°42'0 0.0
2016-May-03 21:32N 43°33' W 005°42'0 0.1
2016-May-03 20:30N 43°33' W 005°42'0 0.0
2016-May-03 19:32N 43°33' W 005°42'2 2.3
2016-May-03 18:32N 43°35' W 005°39'1 0.6
2016-May-03 17:30N 43°34' W 005°40'5 5.4
2016-May-03 16:33N 43°39' W 005°41'23 1.4
2016-May-03 00:27N 43°49' W 005°13'12 0.5
2016-May-02 01:27N 43°37' W 005°10'9 9.3
2016-May-02 00:28N 43°36' W 005°23'9 9.3
2016-May-01 23:33N 43°35' W 005°35'5 1.6
2016-May-01 20:06N 43°33' W 005°42'0 0.0
2016-May-01 19:33N 43°33' W 005°42'0 0.0
2016-May-01 18:32N 43°33' W 005°42'0 0.0
2016-May-01 17:33N 43°33' W 005°42'0 0.0
2016-May-01 16:33N 43°33' W 005°42'0 0.0
2016-May-01 15:31N 43°33' W 005°42'0 0.0
2016-May-01 14:33N 43°33' W 005°42'0 0.0
2016-May-01 13:32N 43°33' W 005°42'0 0.0
2016-May-01 12:33N 43°33' W 005°42'0 0.0
2016-May-01 11:34N 43°33' W 005°42'0 0.0
2016-May-01 10:34N 43°33' W 005°42'0 0.0
2016-May-01 09:34N 43°33' W 005°42'0 0.0
2016-May-01 08:33N 43°33' W 005°42'0 0.0
2016-May-01 07:32N 43°33' W 005°42'0 0.0
2016-May-01 06:33N 43°33' W 005°42'0 0.0
2016-May-01 05:34N 43°33' W 005°42'0 0.0
2016-May-01 04:33N 43°33' W 005°42'0 0.0
2016-May-01 03:33N 43°33' W 005°42'0 0.0
2016-May-01 02:33N 43°33' W 005°42'0 0.0
2016-May-01 01:31N 43°33' W 005°42'0 0.0
2016-May-01 00:34N 43°33' W 005°42'0 0.0
2016-Apr-30 23:34N 43°33' W 005°42'0 0.0
2016-Apr-30 22:33N 43°33' W 005°42'0 0.0
2016-Apr-30 21:33N 43°33' W 005°42'0 0.0
2016-Apr-30 20:32N 43°33' W 005°42'0 0.0
2016-Apr-30 19:34N 43°33' W 005°42'0 0.0
2016-Apr-30 18:33N 43°33' W 005°42'0 0.0
2016-Apr-30 17:33N 43°33' W 005°42'0 0.0
2016-Apr-30 16:33N 43°33' W 005°42'0 0.0
2016-Apr-30 14:32N 43°33' W 005°42'0 0.0
2016-Apr-30 13:17N 43°33' W 005°42'0 0.0
2016-Apr-30 12:33N 43°33' W 005°42'0 0.0
2016-Apr-30 11:34N 43°33' W 005°42'0 0.0
2016-Apr-30 10:34N 43°33' W 005°42'0 0.0
2016-Apr-30 09:30N 43°33' W 005°42'0 0.0
2016-Apr-30 08:28N 43°33' W 005°42'0 0.0
2016-Apr-30 07:32N 43°33' W 005°42'0 0.0
2016-Apr-30 06:33N 43°33' W 005°42'0 0.0
2016-Apr-30 05:33N 43°33' W 005°42'0 0.0
2016-Apr-30 04:34N 43°33' W 005°42'0 0.0
2016-Apr-30 03:33N 43°33' W 005°42'0 0.0
2016-Apr-30 02:33N 43°33' W 005°42'0 0.0
2016-Apr-30 01:34N 43°33' W 005°42'0 0.0
2016-Apr-30 00:34N 43°33' W 005°42'0 0.0
2016-Apr-29 23:34N 43°33' W 005°42'0 0.0
2016-Apr-29 22:32N 43°33' W 005°42'0 0.0
2016-Apr-29 21:33N 43°33' W 005°42'0 0.0
2016-Apr-29 20:33N 43°33' W 005°42'0 0.1
2016-Apr-29 19:34N 43°33' W 005°42'0 0.0
2016-Apr-29 18:33N 43°33' W 005°42'0 0.0
2016-Apr-29 17:34N 43°33' W 005°42'0 0.0
2016-Apr-29 16:33N 43°33' W 005°42'0 0.1
2016-Apr-29 15:25N 43°33' W 005°42'4 3.8
2016-Apr-29 14:21N 43°34' W 005°36'8 9.1
2016-Apr-29 13:29N 43°35' W 005°25'1010.7
2016-Apr-29 12:33N 43°37' W 005°12'  
Track history (hours):
 
Tides and Currents Weather Stations Pressure Air Temp Water Temp Dewpoint Dewpoint Depression Visibility Wind Speed Wind Dir Waves Ship Positions

Abrela

Last reported at 2016-May-08 22:33 UTC. Time now 2016-May-28 10:00 UTC.
Position N 43°33' W 005°42'.
Warning: this ship's position is 19 days out of date.

Length 30 m; draft 3 m.

Type: Fishing. MMSI: 224204490.

Date/timePositionNaut miles runAvg speedWind from/ knotsBaromVisibWave heightAir tempDewpointWater temp
2016-May-08 22:33N 43°33' W 005°42'0 0.0
2016-May-08 21:32N 43°33' W 005°42'0 0.0
2016-May-08 20:23N 43°33' W 005°42'0 0.0
2016-May-08 19:33N 43°33' W 005°42'0 0.0
2016-May-08 18:33N 43°33' W 005°42'0 0.0
2016-May-08 17:33N 43°33' W 005°42'0 0.0
2016-May-08 16:28N 43°33' W 005°42'0 0.0
2016-May-08 15:30N 43°33' W 005°42'0 0.0
2016-May-08 14:32N 43°33' W 005°42'0 0.0
2016-May-08 13:33N 43°33' W 005°42'0 0.0
2016-May-08 12:27N 43°33' W 005°42'0 0.0
2016-May-08 11:21N 43°33' W 005°42'0 0.0
2016-May-08 10:33N 43°33' W 005°42'0 0.0
2016-May-08 09:29N 43°33' W 005°42'0 0.0
2016-May-08 08:30N 43°33' W 005°42'0 0.0
2016-May-08 07:33N 43°33' W 005°42'0 0.0
2016-May-08 06:33N 43°33' W 005°42'0 0.0
2016-May-08 05:33N 43°33' W 005°42'0 0.0
2016-May-08 04:33N 43°33' W 005°42'0 0.0
2016-May-08 03:32N 43°33' W 005°42'0 0.0
2016-May-08 02:32N 43°33' W 005°42'0 0.0
2016-May-08 01:33N 43°33' W 005°42'0 0.0
2016-May-08 00:30N 43°33' W 005°42'0 0.0
2016-May-07 23:32N 43°33' W 005°42'0 0.0
2016-May-07 22:26N 43°33' W 005°42'0 0.0
2016-May-07 21:33N 43°33' W 005°42'0 0.0
2016-May-07 20:21N 43°33' W 005°42'0 0.0
2016-May-07 19:29N 43°33' W 005°42'0 0.0
2016-May-07 18:32N 43°33' W 005°42'0 0.0
2016-May-07 17:33N 43°33' W 005°42'0 0.0
2016-May-07 16:33N 43°33' W 005°42'0 0.0
2016-May-07 15:32N 43°33' W 005°42'0 0.0
2016-May-07 14:33N 43°33' W 005°42'0 0.0
2016-May-07 13:33N 43°33' W 005°42'0 0.0
2016-May-07 12:21N 43°33' W 005°42'0 0.0
2016-May-07 11:29N 43°33' W 005°42'0 0.0
2016-May-07 10:33N 43°33' W 005°42'0 0.0
2016-May-07 09:33N 43°33' W 005°42'0 0.0
2016-May-07 08:29N 43°33' W 005°42'0 0.0
2016-May-07 07:30N 43°33' W 005°42'0 0.0
2016-May-07 06:33N 43°33' W 005°42'0 0.0
2016-May-07 05:32N 43°33' W 005°42'0 0.0
2016-May-07 04:30N 43°33' W 005°42'0 0.0
2016-May-07 03:33N 43°33' W 005°42'0 0.0
2016-May-07 02:33N 43°33' W 005°42'0 0.0
2016-May-07 01:25N 43°33' W 005°42'0 0.0
2016-May-07 00:33N 43°33' W 005°42'0 0.0
2016-May-06 23:33N 43°33' W 005°42'0 0.0
2016-May-06 20:27N 43°33' W 005°42'0 0.0
2016-May-06 19:33N 43°33' W 005°42'0 0.0
2016-May-06 18:33N 43°33' W 005°42'0 0.0
2016-May-06 17:23N 43°33' W 005°42'0 0.0
2016-May-06 16:20N 43°33' W 005°42'0 0.6
2016-May-06 15:33N 43°34' W 005°41'5 5.3
2016-May-06 14:33N 43°37' W 005°36'6 6.3
2016-May-06 13:33N 43°43' W 005°31'4 3.7
2016-May-06 12:26N 43°46' W 005°28'2 2.0
2016-May-06 11:14N 43°46' W 005°25'4 4.4
2016-May-06 10:14N 43°47' W 005°19'13 1.4
2016-May-06 01:16N 43°36' W 005°27'7 9.7
2016-May-06 00:31N 43°35' W 005°37'4 0.7
2016-May-05 19:33N 43°33' W 005°42'0 0.0
2016-May-05 18:33N 43°33' W 005°42'3 3.2
2016-May-05 17:33N 43°35' W 005°38'1110.2
2016-May-05 16:28N 43°43' W 005°27'8 0.3
2016-May-04 14:28N 43°49' W 005°20'16 1.4
2016-May-04 02:32N 43°35' W 005°33'7 7.1
2016-May-04 01:33N 43°33' W 005°42'0 0.0
2016-May-03 23:26N 43°33' W 005°42'0 0.0
2016-May-03 22:31N 43°33' W 005°42'0 0.0
2016-May-03 21:32N 43°33' W 005°42'0 0.1
2016-May-03 20:30N 43°33' W 005°42'0 0.0
2016-May-03 19:32N 43°33' W 005°42'2 2.3
2016-May-03 18:32N 43°35' W 005°39'1 0.6
2016-May-03 17:30N 43°34' W 005°40'5 5.4
2016-May-03 16:33N 43°39' W 005°41'23 1.4
2016-May-03 00:27N 43°49' W 005°13'12 0.5
2016-May-02 01:27N 43°37' W 005°10'9 9.3
2016-May-02 00:28N 43°36' W 005°23'9 9.3
2016-May-01 23:33N 43°35' W 005°35'5 1.6
2016-May-01 20:06N 43°33' W 005°42'0 0.0
2016-May-01 19:33N 43°33' W 005°42'0 0.0
2016-May-01 18:32N 43°33' W 005°42'0 0.0
2016-May-01 17:33N 43°33' W 005°42'0 0.0
2016-May-01 16:33N 43°33' W 005°42'0 0.0
2016-May-01 15:31N 43°33' W 005°42'0 0.0
2016-May-01 14:33N 43°33' W 005°42'0 0.0
2016-May-01 13:32N 43°33' W 005°42'0 0.0
2016-May-01 12:33N 43°33' W 005°42'0 0.0
2016-May-01 11:34N 43°33' W 005°42'0 0.0
2016-May-01 10:34N 43°33' W 005°42'0 0.0
2016-May-01 09:34N 43°33' W 005°42'0 0.0
2016-May-01 08:33N 43°33' W 005°42'0 0.0
2016-May-01 07:32N 43°33' W 005°42'0 0.0
2016-May-01 06:33N 43°33' W 005°42'0 0.0
2016-May-01 05:34N 43°33' W 005°42'0 0.0
2016-May-01 04:33N 43°33' W 005°42'0 0.0
2016-May-01 03:33N 43°33' W 005°42'0 0.0
2016-May-01 02:33N 43°33' W 005°42'0 0.0
2016-May-01 01:31N 43°33' W 005°42'0 0.0
2016-May-01 00:34N 43°33' W 005°42'0 0.0
2016-Apr-30 23:34N 43°33' W 005°42'0 0.0
2016-Apr-30 22:33N 43°33' W 005°42'0 0.0
2016-Apr-30 21:33N 43°33' W 005°42'0 0.0
2016-Apr-30 20:32N 43°33' W 005°42'0 0.0
2016-Apr-30 19:34N 43°33' W 005°42'0 0.0
2016-Apr-30 18:33N 43°33' W 005°42'0 0.0
2016-Apr-30 17:33N 43°33' W 005°42'0 0.0
2016-Apr-30 16:33N 43°33' W 005°42'0 0.0
2016-Apr-30 14:32N 43°33' W 005°42'0 0.0
2016-Apr-30 13:17N 43°33' W 005°42'0 0.0
2016-Apr-30 12:33N 43°33' W 005°42'0 0.0
2016-Apr-30 11:34N 43°33' W 005°42'0 0.0
2016-Apr-30 10:34N 43°33' W 005°42'0 0.0
2016-Apr-30 09:30N 43°33' W 005°42'0 0.0
2016-Apr-30 08:28N 43°33' W 005°42'0 0.0
2016-Apr-30 07:32N 43°33' W 005°42'0 0.0
2016-Apr-30 06:33N 43°33' W 005°42'0 0.0
2016-Apr-30 05:33N 43°33' W 005°42'0 0.0
2016-Apr-30 04:34N 43°33' W 005°42'0 0.0
2016-Apr-30 03:33N 43°33' W 005°42'0 0.0
2016-Apr-30 02:33N 43°33' W 005°42'0 0.0
2016-Apr-30 01:34N 43°33' W 005°42'0 0.0
2016-Apr-30 00:34N 43°33' W 005°42'0 0.0
2016-Apr-29 23:34N 43°33' W 005°42'0 0.0
2016-Apr-29 22:32N 43°33' W 005°42'0 0.0
2016-Apr-29 21:33N 43°33' W 005°42'0 0.0
2016-Apr-29 20:33N 43°33' W 005°42'0 0.1
2016-Apr-29 19:34N 43°33' W 005°42'0 0.0
2016-Apr-29 18:33N 43°33' W 005°42'0 0.0
2016-Apr-29 17:34N 43°33' W 005°42'0 0.0
2016-Apr-29 16:33N 43°33' W 005°42'0 0.1
2016-Apr-29 15:25N 43°33' W 005°42'4 3.8
2016-Apr-29 14:21N 43°34' W 005°36'8 9.1
2016-Apr-29 13:29N 43°35' W 005°25'1010.7
2016-Apr-29 12:33N 43°37' W 005°12'  

Dump ship's entire track history